Time;durP1;ratioP1;P1;durP2;ratioP2;P2;SDS_P1;SDS_P2;PMS_P1;PMS_P2;Temp;Humidity;BMP_temperature;BMP_pressure;BME280_temperature;BME280_humidity;BME280_pressure;Samples;Min_cycle;Max_cycle;Signal;HPM_P1;HPM_P2
2021/07/07 00:00:44;;;;;;;3.53;1.73;;;;;;;14.41;nan;96505.59;3548141;40;20776;-71
2021/07/07 00:03:12;;;;;;;4.97;1.23;;;;;;;14.34;nan;96511.50;3551858;40;20498;-71
2021/07/07 00:05:40;;;;;;;9.17;2.03;;;;;;;14.24;nan;96520.19;3550424;40;20565;-72
2021/07/07 00:08:08;;;;;;;12.60;2.07;;;;;;;14.24;nan;96522.81;3550382;40;20568;-71
2021/07/07 00:10:36;;;;;;;8.43;1.93;;;;;;;14.25;nan;96523.66;3549162;40;20471;-71
2021/07/07 00:13:05;;;;;;;7.40;1.90;;;;;;;14.20;nan;96520.56;3549154;40;20646;-70
2021/07/07 00:15:34;;;;;;;6.50;2.07;;;;;;;14.17;nan;96518.19;3547419;40;20480;-71
2021/07/07 00:18:07;;;;;;;2.00;1.60;;;;;;;14.23;nan;96509.78;3550646;40;20463;-71
2021/07/07 00:20:38;;;;;;;7.80;2.00;;;;;;;14.22;nan;96516.00;3549669;40;20529;-71
2021/07/07 00:23:07;;;;;;;9.90;1.70;;;;;;;14.30;nan;96510.94;3551348;40;20934;-71
2021/07/07 00:25:35;;;;;;;7.67;2.40;;;;;;;14.35;nan;96503.47;3545393;40;20834;-73
2021/07/07 00:28:04;;;;;;;5.87;1.73;;;;;;;14.38;nan;96511.09;3549194;40;20839;-71
2021/07/07 00:30:31;;;;;;;6.87;1.83;;;;;;;14.40;nan;96501.25;3549699;40;20476;-73
2021/07/07 00:33:01;;;;;;;7.53;2.00;;;;;;;14.41;nan;96495.03;3549239;40;20757;-73
2021/07/07 00:35:29;;;;;;;6.10;1.83;;;;;;;14.30;nan;96481.13;3549629;40;20524;-73
2021/07/07 00:38:00;;;;;;;6.80;1.90;;;;;;;14.35;nan;96482.41;3550326;40;20462;-71
2021/07/07 00:40:29;;;;;;;9.90;1.70;;;;;;;14.34;nan;96501.78;3549208;40;20463;-71
2021/07/07 00:42:57;;;;;;;4.93;1.80;;;;;;;14.30;nan;96505.66;3553692;40;20778;-74
2021/07/07 00:45:24;;;;;;;8.83;2.50;;;;;;;14.07;nan;96504.97;3551095;40;20487;-71
2021/07/07 00:47:53;;;;;;;6.43;2.93;;;;;;;13.91;nan;96509.84;3548483;40;20776;-71
2021/07/07 00:50:23;;;;;;;3.30;1.40;;;;;;;14.10;nan;96499.44;3547998;40;20467;-71
2021/07/07 00:52:51;;;;;;;7.10;2.07;;;;;;;14.04;nan;96490.28;3552003;40;20869;-72
2021/07/07 00:55:19;;;;;;;11.27;2.43;;;;;;;13.98;nan;96488.16;3552754;40;20933;-73
2021/07/07 00:57:47;;;;;;;4.97;2.57;;;;;;;14.06;nan;96498.03;3551202;40;21084;-71
2021/07/07 01:00:18;;;;;;;5.70;1.50;;;;;;;14.16;nan;96503.38;3546675;40;20470;-71
2021/07/07 01:02:47;;;;;;;10.67;2.00;;;;;;;14.21;nan;96499.38;3545633;40;20837;-72
2021/07/07 01:05:16;;;;;;;11.43;1.90;;;;;;;14.28;nan;96515.50;3545707;40;20486;-71
2021/07/07 01:07:45;;;;;;;6.80;2.33;;;;;;;14.30;nan;96510.94;3546431;40;20443;-71
2021/07/07 01:10:16;;;;;;;6.93;2.77;;;;;;;14.25;nan;96499.97;3545253;40;20809;-72
2021/07/07 01:12:44;;;;;;;4.97;2.30;;;;;;;13.97;nan;96499.63;3546135;40;20871;-72
2021/07/07 01:15:15;;;;;;;7.93;1.60;;;;;;;14.03;nan;96493.88;3546102;40;20801;-70
2021/07/07 01:17:43;;;;;;;7.30;1.80;;;;;;;14.14;nan;96486.88;3548762;40;20751;-70
2021/07/07 01:20:15;;;;;;;7.70;2.20;;;;;;;13.82;nan;96490.41;3550153;40;20514;-69
2021/07/07 01:22:44;;;;;;;5.30;2.30;;;;;;;14.11;nan;96479.22;3549159;40;20457;-70
2021/07/07 01:25:14;;;;;;;7.83;2.17;;;;;;;14.18;nan;96464.56;3548422;40;20926;-72
2021/07/07 01:27:44;;;;;;;11.97;2.30;;;;;;;14.25;nan;96484.16;3548326;40;20875;-71
2021/07/07 01:30:15;;;;;;;5.73;2.37;;;;;;;14.28;nan;96504.13;3550840;40;20828;-70
2021/07/07 01:32:44;;;;;;;9.57;2.53;;;;;;;14.16;nan;96511.28;3551661;40;21226;-71
2021/07/07 01:35:14;;;;;;;8.40;2.13;;;;;;;14.13;nan;96508.88;3548607;40;20852;-71
2021/07/07 01:37:44;;;;;;;5.60;2.50;;;;;;;14.21;nan;96509.06;3547063;40;20800;-72
2021/07/07 01:40:15;;;;;;;12.63;2.77;;;;;;;14.27;nan;96519.09;3548734;40;20488;-70
2021/07/07 01:42:43;;;;;;;3.80;2.20;;;;;;;14.20;nan;96531.09;3550520;40;20895;-73
2021/07/07 01:45:12;;;;;;;3.53;1.70;;;;;;;14.15;nan;96535.91;3552747;40;20935;-71
2021/07/07 01:47:41;;;;;;;3.07;2.10;;;;;;;14.15;nan;96541.19;3548272;40;20483;-72
2021/07/07 01:50:13;;;;;;;13.80;2.30;;;;;;;14.01;nan;96529.19;3547043;40;20447;-71
2021/07/07 01:52:41;;;;;;;5.90;1.80;;;;;;;14.01;nan;96523.91;3547336;40;20751;-71
2021/07/07 01:55:15;;;;;;;3.43;2.10;;;;;;;14.14;nan;96521.09;3552519;40;20814;-72
2021/07/07 01:57:46;;;;;;;5.33;2.60;;;;;;;14.19;nan;96518.91;3552541;40;20875;-72
2021/07/07 02:00:18;;;;;;;4.30;2.37;;;;;;;14.30;nan;96513.56;3546724;40;20743;-72
2021/07/07 02:02:48;;;;;;;6.80;2.07;;;;;;;14.33;nan;96502.78;3547673;40;20660;-72
2021/07/07 02:05:17;;;;;;;3.93;2.27;;;;;;;14.32;nan;96498.44;3551892;40;20524;-72
2021/07/07 02:07:45;;;;;;;5.93;1.90;;;;;;;14.33;nan;96499.28;3550197;40;20585;-70
2021/07/07 02:10:18;;;;;;;7.60;2.50;;;;;;;14.29;nan;96509.28;3553272;40;20457;-71
2021/07/07 02:12:46;;;;;;;7.60;1.97;;;;;;;14.20;nan;96510.88;3550819;40;20447;-72
2021/07/07 02:15:17;;;;;;;10.13;2.10;;;;;;;14.23;nan;96508.00;3550819;40;20855;-72
2021/07/07 02:17:45;;;;;;;6.73;2.10;;;;;;;14.36;nan;96514.84;3550317;40;20956;-71
2021/07/07 02:20:15;;;;;;;2.50;2.10;;;;;;;13.99;nan;96513.50;3552773;40;20859;-72
2021/07/07 02:22:44;;;;;;;3.80;2.23;;;;;;;14.09;nan;96512.75;3553077;40;20545;-72
2021/07/07 02:25:17;;;;;;;11.13;2.27;;;;;;;14.01;nan;96518.66;3549572;40;20464;-71
2021/07/07 02:27:45;;;;;;;8.13;2.63;;;;;;;13.99;nan;96525.84;3548317;40;20914;-72
2021/07/07 02:30:18;;;;;;;7.50;3.20;;;;;;;13.94;nan;96515.72;3550837;40;20545;-71
2021/07/07 02:32:47;;;;;;;3.77;2.40;;;;;;;14.07;nan;96519.94;3547093;40;20460;-72
2021/07/07 02:35:18;;;;;;;10.40;2.40;;;;;;;14.15;nan;96514.84;3549153;40;20844;-71
2021/07/07 02:37:49;;;;;;;6.70;2.30;;;;;;;14.17;nan;96515.56;3550621;40;20752;-71
2021/07/07 02:40:18;;;;;;;5.10;2.10;;;;;;;14.21;nan;96519.59;3546010;40;20804;-72
2021/07/07 02:42:47;;;;;;;4.40;1.90;;;;;;;14.27;nan;96518.25;3550114;40;20439;-73
2021/07/07 02:45:16;;;;;;;8.73;2.07;;;;;;;14.24;nan;96524.63;3550483;40;20834;-73
2021/07/07 02:47:45;;;;;;;3.10;2.07;;;;;;;14.15;nan;96515.72;3553163;40;20585;-73
2021/07/07 02:50:16;;;;;;;2.70;1.93;;;;;;;14.19;nan;96521.53;3546097;40;20755;-73
2021/07/07 02:52:48;;;;;;;7.70;2.30;;;;;;;14.02;nan;96508.00;3547645;40;20440;-74
2021/07/07 02:55:18;;;;;;;7.80;2.73;;;;;;;14.19;nan;96484.66;3548553;40;20463;-71
2021/07/07 02:57:57;;;;;;;14.57;2.23;;;;;;;14.24;nan;96467.50;3550740;40;20926;-72
2021/07/07 03:00:31;;;;;;;3.70;2.67;;;;;;;14.26;nan;96471.81;3551294;40;20478;-71
2021/07/07 03:03:01;;;;;;;8.30;1.80;;;;;;;14.31;nan;96512.59;3547990;40;20840;-71
2021/07/07 03:05:31;;;;;;;7.50;1.97;;;;;;;14.13;nan;96529.94;3548674;40;20541;-74
2021/07/07 03:07:59;;;;;;;6.47;2.10;;;;;;;14.06;nan;96539.34;3549645;40;20535;-72
2021/07/07 03:10:28;;;;;;;4.77;2.97;;;;;;;14.07;nan;96535.72;3549324;40;20805;-73
2021/07/07 03:12:57;;;;;;;7.27;2.40;;;;;;;14.06;nan;96544.63;3546352;40;20848;-71
2021/07/07 03:15:26;;;;;;;5.87;2.47;;;;;;;14.08;nan;96547.94;3546348;40;20495;-73
2021/07/07 03:17:55;;;;;;;9.50;2.63;;;;;;;14.09;nan;96554.88;3547779;40;20960;-72
2021/07/07 03:20:23;;;;;;;15.87;3.33;;;;;;;13.88;nan;96553.06;3547749;40;20523;-71
2021/07/07 03:22:51;;;;;;;3.70;3.10;;;;;;;13.91;nan;96542.28;3550834;40;20552;-72
2021/07/07 03:25:20;;;;;;;3.40;2.63;;;;;;;13.97;nan;96546.19;3551449;40;20514;-71
2021/07/07 03:27:49;;;;;;;4.53;2.53;;;;;;;14.06;nan;96549.88;3551341;40;20446;-72
2021/07/07 03:30:20;;;;;;;6.50;3.47;;;;;;;13.94;nan;96552.56;3548040;40;20747;-71
2021/07/07 03:32:48;;;;;;;4.83;2.80;;;;;;;14.01;nan;96544.97;3552831;40;20447;-72
2021/07/07 03:35:16;;;;;;;11.83;2.57;;;;;;;13.85;nan;96555.94;3549351;40;20460;-74
2021/07/07 03:37:44;;;;;;;6.53;3.00;;;;;;;13.89;nan;96553.91;3550070;40;20445;-74
2021/07/07 03:40:14;;;;;;;5.77;3.00;;;;;;;13.87;nan;96556.66;3550508;40;20688;-75
2021/07/07 03:42:43;;;;;;;5.67;2.37;;;;;;;13.80;nan;96544.97;3552775;40;20785;-73
2021/07/07 03:45:12;;;;;;;9.80;2.50;;;;;;;13.78;nan;96524.06;3550579;40;20471;-74
2021/07/07 03:47:42;;;;;;;5.83;2.67;;;;;;;13.81;nan;96526.41;3552886;40;20597;-72
2021/07/07 03:50:11;;;;;;;6.00;2.93;;;;;;;13.85;nan;96527.00;3549352;40;20557;-71
2021/07/07 03:52:40;;;;;;;3.60;2.47;;;;;;;13.99;nan;96518.78;3548489;40;20526;-71
2021/07/07 03:55:10;;;;;;;7.50;3.00;;;;;;;14.12;nan;96507.22;3548892;40;20565;-71
2021/07/07 03:57:38;;;;;;;11.47;2.40;;;;;;;14.12;nan;96512.50;3548530;40;20829;-72
2021/07/07 04:00:09;;;;;;;4.20;2.23;;;;;;;14.12;nan;96521.22;3548863;40;20471;-72
2021/07/07 04:02:37;;;;;;;5.17;2.43;;;;;;;14.15;nan;96512.22;3549903;40;20468;-74
2021/07/07 04:05:08;;;;;;;5.43;2.30;;;;;;;14.18;nan;96511.97;3549438;40;20902;-74
2021/07/07 04:07:37;;;;;;;9.17;2.90;;;;;;;14.17;nan;96510.28;3551853;40;21220;-71
2021/07/07 04:10:07;;;;;;;10.53;2.93;;;;;;;14.24;nan;96543.88;3547473;40;20820;-71
2021/07/07 04:12:35;;;;;;;7.53;2.33;;;;;;;14.21;nan;96561.72;3550274;40;20853;-73
2021/07/07 04:15:04;;;;;;;5.73;2.43;;;;;;;14.13;nan;96593.16;3551337;40;20945;-72
2021/07/07 04:17:32;;;;;;;11.97;2.53;;;;;;;14.03;nan;96607.09;3550847;40;21148;-72
2021/07/07 04:20:01;;;;;;;8.50;3.07;;;;;;;14.02;nan;96617.75;3547740;40;20569;-71
2021/07/07 04:22:30;;;;;;;6.43;2.93;;;;;;;13.94;nan;96607.03;3548569;40;20483;-73
2021/07/07 04:24:58;;;;;;;3.70;3.10;;;;;;;13.79;nan;96573.06;3552288;40;20908;-72
2021/07/07 04:27:26;;;;;;;5.20;3.00;;;;;;;14.01;nan;96580.06;3557162;40;20471;-71
2021/07/07 04:29:54;;;;;;;5.47;2.93;;;;;;;14.11;nan;96584.53;3547623;40;20825;-74
2021/07/07 04:32:22;;;;;;;7.93;2.70;;;;;;;13.88;nan;96589.94;3548586;40;20811;-71
2021/07/07 04:34:51;;;;;;;6.67;2.53;;;;;;;13.94;nan;96573.63;3545722;40;20563;-72
2021/07/07 04:37:19;;;;;;;3.60;3.17;;;;;;;14.10;nan;96575.81;3546186;40;20724;-70
2021/07/07 04:39:49;;;;;;;5.70;2.83;;;;;;;13.83;nan;96560.50;3545819;40;20529;-75
2021/07/07 04:42:16;;;;;;;7.40;2.40;;;;;;;13.87;nan;96538.22;3548175;40;20536;-70
2021/07/07 04:44:44;;;;;;;7.50;2.47;;;;;;;14.12;nan;96534.38;3554266;40;20481;-73
2021/07/07 04:47:12;;;;;;;6.70;2.70;;;;;;;14.28;nan;96557.63;3547974;40;20534;-74
2021/07/07 04:49:40;;;;;;;4.90;2.70;;;;;;;14.30;nan;96560.97;3549414;40;20777;-73
2021/07/07 04:52:08;;;;;;;9.13;2.40;;;;;;;14.26;nan;96551.66;3551007;40;20554;-75
2021/07/07 04:54:36;;;;;;;8.10;3.00;;;;;;;14.54;nan;96579.13;3547163;40;20471;-75
2021/07/07 04:57:06;;;;;;;5.47;2.33;;;;;;;14.66;nan;96598.34;3548103;40;20475;-75
2021/07/07 04:59:34;;;;;;;7.83;3.10;;;;;;;14.63;nan;96588.91;3550662;40;20642;-75
2021/07/07 05:02:02;;;;;;;4.80;2.97;;;;;;;14.53;nan;96584.53;3551161;40;20460;-74
2021/07/07 05:04:30;;;;;;;6.03;3.20;;;;;;;14.47;nan;96603.50;3550406;40;20841;-72
2021/07/07 05:06:58;;;;;;;4.53;3.33;;;;;;;14.28;nan;96604.22;3558449;40;20501;-73
2021/07/07 05:09:26;;;;;;;29.63;3.83;;;;;;;14.25;nan;96607.94;3549354;40;20948;-74
2021/07/07 05:11:54;;;;;;;3.83;2.97;;;;;;;14.22;nan;96618.72;3549580;40;20452;-72
2021/07/07 05:14:23;;;;;;;5.93;2.07;;;;;;;14.24;nan;96601.81;3548098;40;20975;-73
2021/07/07 05:16:51;;;;;;;10.83;3.07;;;;;;;14.25;nan;96597.41;3549697;40;20461;-72
2021/07/07 05:19:19;;;;;;;3.30;2.03;;;;;;;14.26;nan;96593.81;3547637;40;20903;-74
2021/07/07 05:21:50;;;;;;;7.53;1.70;;;;;;;14.31;nan;96596.03;3555959;40;20478;-75
2021/07/07 05:24:18;;;;;;;8.00;2.33;;;;;;;14.32;nan;96598.56;3549744;40;20567;-72
2021/07/07 05:26:46;;;;;;;4.37;1.83;;;;;;;14.44;nan;96612.50;3553346;40;20924;-71
2021/07/07 05:29:16;;;;;;;3.57;1.83;;;;;;;14.41;nan;96613.59;3545615;40;20471;-72
2021/07/07 05:31:45;;;;;;;13.23;1.93;;;;;;;14.15;nan;96607.88;3545584;40;20456;-71
2021/07/07 05:34:13;;;;;;;3.97;1.67;;;;;;;14.15;nan;96602.63;3550127;40;20847;-71
2021/07/07 05:36:41;;;;;;;7.33;1.77;;;;;;;14.31;nan;96638.19;3548348;40;20448;-73
2021/07/07 05:39:09;;;;;;;5.93;2.07;;;;;;;14.26;nan;96635.94;3551174;40;20613;-73
2021/07/07 05:41:55;;;;;;;8.77;1.80;;;;;;;14.35;nan;96655.44;3550730;40;20957;-74
2021/07/07 05:44:23;;;;;;;3.43;1.73;;;;;;;14.31;nan;96644.31;3549943;40;20814;-75
2021/07/07 05:46:52;;;;;;;5.50;1.87;;;;;;;14.31;nan;96644.31;3545982;40;20479;-73
2021/07/07 05:49:20;;;;;;;6.53;2.37;;;;;;;14.22;nan;96630.09;3544581;40;20778;-72
2021/07/07 05:51:48;;;;;;;4.23;1.80;;;;;;;14.36;nan;96647.38;3545162;40;20579;-73
2021/07/07 05:54:16;;;;;;;4.73;2.20;;;;;;;14.23;nan;96636.22;3545834;40;20837;-73
2021/07/07 05:56:44;;;;;;;4.70;1.70;;;;;;;14.07;nan;96614.72;3549579;40;20521;-72
2021/07/07 05:59:12;;;;;;;5.07;1.70;;;;;;;14.36;nan;96620.22;3553697;40;20517;-72
2021/07/07 06:01:40;;;;;;;8.97;2.20;;;;;;;14.23;nan;96631.78;3549775;40;20538;-72
2021/07/07 06:04:09;;;;;;;3.20;1.97;;;;;;;14.41;nan;96623.31;3550571;40;20911;-74
2021/07/07 06:06:37;;;;;;;4.57;2.30;;;;;;;14.55;nan;96608.97;3547821;40;20775;-73
2021/07/07 06:09:05;;;;;;;7.73;2.60;;;;;;;14.40;nan;96601.38;3548144;40;20769;-71
2021/07/07 06:11:33;;;;;;;8.47;2.20;;;;;;;14.76;nan;96611.59;3550677;40;20680;-73
2021/07/07 06:14:04;;;;;;;8.40;2.20;;;;;;;14.81;nan;96620.78;3548497;40;20454;-75
2021/07/07 06:16:32;;;;;;;7.83;1.83;;;;;;;14.86;nan;96628.31;3550542;40;20563;-74
2021/07/07 06:19:00;;;;;;;10.10;2.77;;;;;;;14.79;nan;96633.25;3548444;40;20479;-72
2021/07/07 06:21:31;;;;;;;12.50;2.50;;;;;;;14.77;nan;96622.00;3547663;40;20460;-72
2021/07/07 06:23:59;;;;;;;5.60;2.00;;;;;;;14.77;nan;96623.81;3548478;40;20447;-76
2021/07/07 06:26:28;;;;;;;7.50;2.30;;;;;;;14.68;nan;96614.03;3550653;40;20556;-73
2021/07/07 06:28:56;;;;;;;4.57;1.83;;;;;;;14.63;nan;96630.25;3550219;40;20854;-72
2021/07/07 06:31:25;;;;;;;11.63;2.53;;;;;;;14.81;nan;96643.69;3549427;40;20773;-74
2021/07/07 06:33:53;;;;;;;7.10;1.90;;;;;;;14.93;nan;96645.25;3551348;40;20453;-75
2021/07/07 06:36:21;;;;;;;3.43;1.67;;;;;;;14.89;nan;96654.41;3549890;40;20541;-74
2021/07/07 06:38:50;;;;;;;7.40;2.20;;;;;;;14.80;nan;96671.84;3547578;40;20436;-74
2021/07/07 06:41:18;;;;;;;2.93;2.20;;;;;;;14.64;nan;96679.34;3546666;40;20929;-73
2021/07/07 06:43:46;;;;;;;3.40;1.90;;;;;;;14.55;nan;96675.66;3550798;40;21078;-74
2021/07/07 06:46:14;;;;;;;9.63;2.37;;;;;;;14.43;nan;96680.16;3546790;40;20565;-75
2021/07/07 06:48:42;;;;;;;14.03;2.50;;;;;;;14.36;nan;96665.81;3548595;40;20547;-74
2021/07/07 06:51:10;;;;;;;6.10;2.10;;;;;;;14.48;nan;96676.31;3552967;40;20476;-75
2021/07/07 06:53:38;;;;;;;5.07;2.00;;;;;;;14.53;nan;96682.03;3553663;40;20800;-74
2021/07/07 06:56:07;;;;;;;3.50;2.40;;;;;;;14.55;nan;96693.28;3546201;40;20832;-75
2021/07/07 06:58:35;;;;;;;2.60;2.20;;;;;;;14.55;nan;96703.84;3547638;40;20733;-75
2021/07/07 07:01:04;;;;;;;5.40;2.20;;;;;;;14.56;nan;96710.75;3547398;40;20563;-75
2021/07/07 07:03:32;;;;;;;4.80;2.63;;;;;;;14.51;nan;96712.94;3551731;40;20454;-74
2021/07/07 07:06:00;;;;;;;4.67;2.30;;;;;;;14.40;nan;96716.47;3553483;40;20458;-76
2021/07/07 07:08:28;;;;;;;5.37;2.50;;;;;;;14.44;nan;96710.84;3549798;40;20747;-76
2021/07/07 07:10:56;;;;;;;5.27;2.33;;;;;;;14.54;nan;96708.25;3548178;40;20751;-73
2021/07/07 07:13:25;;;;;;;5.57;2.33;;;;;;;14.55;nan;96704.66;3549609;40;20894;-74
2021/07/07 07:15:53;;;;;;;3.20;2.20;;;;;;;14.47;nan;96701.81;3547955;40;20502;-73
2021/07/07 07:18:21;;;;;;;6.90;2.60;;;;;;;14.50;nan;96700.72;3554546;40;20816;-73
2021/07/07 07:20:49;;;;;;;13.57;2.80;;;;;;;14.74;nan;96704.00;3549044;40;20444;-74
2021/07/07 07:23:18;;;;;;;7.67;2.63;;;;;;;15.00;nan;96708.88;3548339;40;21006;-73
2021/07/07 07:25:46;;;;;;;3.93;2.13;;;;;;;15.01;nan;96710.53;3549716;40;20797;-73
2021/07/07 07:28:14;;;;;;;8.43;2.90;;;;;;;15.20;nan;96707.16;3551114;40;20847;-73
2021/07/07 07:30:45;;;;;;;3.40;2.43;;;;;;;15.33;nan;96710.41;3551209;39;20677;-72
2021/07/07 07:33:13;;;;;;;3.97;2.47;;;;;;;15.18;nan;96699.38;3548742;40;20444;-73
2021/07/07 07:35:42;;;;;;;4.20;2.60;;;;;;;15.44;nan;96712.13;3548090;40;20566;-73
2021/07/07 07:38:12;;;;;;;9.57;3.03;;;;;;;15.36;nan;96704.03;3549915;40;20451;-73
2021/07/07 07:40:42;;;;;;;10.20;3.10;;;;;;;14.96;nan;96700.38;3550468;40;20581;-74
2021/07/07 07:43:13;;;;;;;5.77;2.67;;;;;;;14.91;nan;96697.28;3555683;40;20716;-74
2021/07/07 07:45:41;;;;;;;9.83;3.77;;;;;;;14.78;nan;96692.22;3552018;40;21193;-73
2021/07/07 07:48:10;;;;;;;6.53;3.30;;;;;;;14.90;nan;96703.53;3548595;40;20808;-71
2021/07/07 07:50:38;;;;;;;12.30;2.73;;;;;;;15.18;nan;96707.28;3548445;40;20467;-73
2021/07/07 07:53:06;;;;;;;9.57;2.50;;;;;;;15.45;nan;96719.06;3549657;40;20525;-73
2021/07/07 07:55:34;;;;;;;12.57;2.30;;;;;;;15.76;nan;96733.13;3552374;40;20767;-71
2021/07/07 07:58:03;;;;;;;7.03;3.17;;;;;;;16.00;nan;96726.63;3552001;40;20819;-71
2021/07/07 08:00:31;;;;;;;9.73;2.77;;;;;;;16.35;nan;96720.00;3548117;40;20526;-74
2021/07/07 08:02:58;;;;;;;3.17;2.23;;;;;;;16.09;nan;96730.25;3550620;40;20459;-74
2021/07/07 08:05:28;;;;;;;7.03;2.80;;;;;;;16.29;nan;96734.59;3548147;40;20464;-75
2021/07/07 08:07:58;;;;;;;2.80;1.93;;;;;;;16.05;nan;96728.84;3550941;40;20564;-73
2021/07/07 08:10:25;;;;;;;3.47;2.47;;;;;;;16.11;nan;96730.94;3550416;40;20562;-73
2021/07/07 08:12:53;;;;;;;5.30;2.03;;;;;;;15.91;nan;96724.81;3547951;40;20785;-74
2021/07/07 08:15:24;;;;;;;8.10;1.60;;;;;;;16.51;nan;96730.03;3548892;40;20822;-74
2021/07/07 08:17:52;;;;;;;5.47;2.00;;;;;;;16.34;nan;96736.81;3550779;40;20467;-74
2021/07/07 08:20:21;;;;;;;9.30;2.70;;;;;;;16.14;nan;96735.97;3552797;40;20842;-75
2021/07/07 08:22:51;;;;;;;6.80;1.90;;;;;;;16.08;nan;96732.06;3549657;40;20953;-73
2021/07/07 08:25:21;;;;;;;10.37;1.80;;;;;;;16.13;nan;96736.94;3547635;40;20463;-73
2021/07/07 08:27:49;;;;;;;5.43;2.10;;;;;;;15.91;nan;96728.28;3549730;40;20913;-72
2021/07/07 08:30:18;;;;;;;3.47;2.30;;;;;;;15.67;nan;96733.06;3553992;40;20839;-73
2021/07/07 08:32:46;;;;;;;2.43;1.93;;;;;;;15.59;nan;96739.81;3553331;40;20542;-75
2021/07/07 08:35:14;;;;;;;6.07;2.13;;;;;;;15.80;nan;96733.69;3551237;40;20510;-73
2021/07/07 08:37:43;;;;;;;3.73;2.00;;;;;;;16.00;nan;96724.81;3553529;40;20946;-73
2021/07/07 08:40:15;;;;;;;5.60;2.97;;;;;;;16.21;nan;96750.31;3550839;40;21157;-75
2021/07/07 08:42:44;;;;;;;8.53;2.50;;;;;;;16.46;nan;96756.84;3552217;40;20959;-73
2021/07/07 08:45:15;;;;;;;5.73;2.27;;;;;;;16.66;nan;96756.88;3560030;40;20486;-72
2021/07/07 08:47:46;;;;;;;6.17;2.20;;;;;;;16.68;nan;96765.50;3549602;40;20833;-73
2021/07/07 08:50:17;;;;;;;3.17;2.00;;;;;;;15.98;nan;96768.19;3548318;40;20820;-71
2021/07/07 08:52:45;;;;;;;6.93;2.63;;;;;;;15.91;nan;96749.41;3549365;40;20958;-73
2021/07/07 08:55:17;;;;;;;5.87;2.47;;;;;;;16.16;nan;96740.13;3551405;40;20451;-71
2021/07/07 08:57:46;;;;;;;9.63;2.17;;;;;;;16.21;nan;96745.03;3551931;40;20553;-74
2021/07/07 09:00:16;;;;;;;5.90;2.10;;;;;;;16.83;nan;96745.63;3549925;40;20455;-76
2021/07/07 09:02:53;;;;;;;3.47;2.03;;;;;;;17.15;nan;96741.78;3547674;40;20647;-73
2021/07/07 09:05:24;;;;;;;7.60;2.33;;;;;;;17.67;nan;96744.84;3548402;40;20887;-73
2021/07/07 09:07:52;;;;;;;7.00;2.07;;;;;;;17.82;nan;96754.94;3553790;40;20460;-72
2021/07/07 09:10:29;;;;;;;3.30;2.00;;;;;;;18.35;nan;96755.09;3550695;40;20744;-73
2021/07/07 09:13:09;;;;;;;7.33;1.93;;;;;;;18.53;nan;96752.44;3552126;40;21119;-75
2021/07/07 09:15:37;;;;;;;6.40;2.17;;;;;;;18.01;nan;96754.03;3549296;40;20860;-74
2021/07/07 09:18:05;;;;;;;9.63;3.00;;;;;;;17.89;nan;96770.13;3550596;40;20444;-73
2021/07/07 09:20:37;;;;;;;9.80;1.60;;;;;;;18.40;nan;96769.69;3550458;40;21420;-73
2021/07/07 09:23:17;;;;;;;5.67;1.33;;;;;;;18.35;nan;96775.47;3550123;40;20503;-74
2021/07/07 09:25:53;;;;;;;14.63;1.37;;;;;;;18.25;nan;96783.47;3545927;40;20459;-72
2021/07/07 09:28:23;;;;;;;5.60;1.30;;;;;;;18.26;nan;96781.66;3551666;40;20819;-73
2021/07/07 09:30:52;;;;;;;3.33;0.87;;;;;;;17.85;nan;96782.00;3545604;40;20991;-73
2021/07/07 09:33:20;;;;;;;7.57;1.70;;;;;;;17.26;nan;96783.16;3545962;40;20460;-72
2021/07/07 09:35:50;;;;;;;7.10;1.50;;;;;;;17.32;nan;96783.41;3547200;40;20589;-73
2021/07/07 09:38:18;;;;;;;7.80;1.57;;;;;;;17.48;nan;96788.09;3549509;40;20844;-74
2021/07/07 09:40:48;;;;;;;2.90;1.40;;;;;;;17.39;nan;96802.22;3548063;40;20844;-74
2021/07/07 09:43:22;;;;;;;5.17;1.70;;;;;;;17.50;nan;96796.72;3550196;40;20446;-73
2021/07/07 09:46:05;;;;;;;11.43;2.77;;;;;;;17.48;nan;96801.31;3551653;40;20462;-72
2021/07/07 09:48:37;;;;;;;2.70;1.10;;;;;;;17.38;nan;96795.22;3548300;40;20962;-72
2021/07/07 09:51:05;;;;;;;5.50;1.30;;;;;;;17.65;nan;96798.94;3554279;40;20766;-72
2021/07/07 09:53:33;;;;;;;2.50;1.43;;;;;;;17.57;nan;96797.81;3546230;40;20876;-72
2021/07/07 09:56:03;;;;;;;8.37;1.53;;;;;;;17.69;nan;96798.47;3545522;40;20524;-72
2021/07/07 09:58:32;;;;;;;9.83;1.40;;;;;;;17.85;nan;96808.47;3550819;40;20476;-73
2021/07/07 10:01:00;;;;;;;4.30;1.10;;;;;;;17.85;nan;96800.53;3548362;40;20787;-73
2021/07/07 10:03:28;;;;;;;6.73;1.13;;;;;;;17.74;nan;96806.00;3549597;40;20926;-73
2021/07/07 10:05:59;;;;;;;4.33;1.30;;;;;;;17.46;nan;96803.28;3550196;40;20946;-74
2021/07/07 10:08:29;;;;;;;10.73;1.63;;;;;;;17.52;nan;96804.53;3552390;40;20461;-74
2021/07/07 10:10:59;;;;;;;8.10;1.40;;;;;;;17.90;nan;96797.47;3554056;40;20827;-75
2021/07/07 10:13:29;;;;;;;5.50;1.03;;;;;;;17.30;nan;96793.28;3548684;40;20760;-72
2021/07/07 10:15:57;;;;;;;10.83;2.07;;;;;;;17.22;nan;96793.19;3551424;40;20791;-72
2021/07/07 10:18:25;;;;;;;5.90;1.03;;;;;;;17.79;nan;96795.78;3551776;40;20470;-73
2021/07/07 10:20:53;;;;;;;4.93;1.50;;;;;;;17.75;nan;96791.78;3550613;40;20522;-74
2021/07/07 10:23:23;;;;;;;4.67;1.10;;;;;;;17.84;nan;96790.09;3552226;40;20510;-73
2021/07/07 10:26:00;;;;;;;4.70;1.40;;;;;;;18.20;nan;96791.03;3550070;40;21198;-73
2021/07/07 10:28:30;;;;;;;4.80;1.20;;;;;;;18.75;nan;96790.91;3549429;40;20533;-74
2021/07/07 10:31:00;;;;;;;5.20;1.93;;;;;;;18.34;nan;96793.16;3548921;40;20863;-73
2021/07/07 10:33:31;;;;;;;8.03;1.10;;;;;;;18.66;nan;96778.59;3552444;40;20462;-72
2021/07/07 10:36:20;;;;;;;3.43;1.20;;;;;;;19.58;nan;96781.78;3545666;40;20510;-74
2021/07/07 10:38:54;;;;;;;5.23;1.30;;;;;;;18.81;nan;96788.69;3548379;40;21182;-73
2021/07/07 10:41:52;;;;;;;6.53;1.20;;;;;;;19.32;nan;96789.75;3555285;40;20543;-75
2021/07/07 10:44:59;;;;;;;4.10;1.43;;;;;;;19.98;nan;96788.31;3551286;39;20450;-74
2021/07/07 10:47:37;;;;;;;3.80;1.57;;;;;;;19.98;nan;96795.47;3554080;40;20846;-72
2021/07/07 10:50:07;;;;;;;6.03;1.40;;;;;;;20.20;nan;96796.72;3557063;40;20458;-74
2021/07/07 10:52:44;;;;;;;2.67;1.20;;;;;;;20.24;nan;96798.88;3552229;40;20856;-72
2021/07/07 10:55:15;;;;;;;8.03;1.47;;;;;;;21.22;nan;96794.72;3549384;40;20708;-74
2021/07/07 10:57:45;;;;;;;7.90;1.47;;;;;;;19.94;nan;96797.63;3552868;40;20581;-74
2021/07/07 11:00:32;;;;;;;10.47;1.70;;;;;;;21.35;nan;96784.41;3552640;40;20832;-77
2021/07/07 11:03:21;;;;;;;10.80;1.30;;;;;;;21.91;nan;96789.78;3546353;40;20490;-76
2021/07/07 11:05:49;;;;;;;8.63;1.50;;;;;;;21.30;nan;96784.88;3548207;40;20576;-74
2021/07/07 11:08:21;;;;;;;4.90;1.27;;;;;;;21.01;nan;96789.91;3549469;40;20476;-72
2021/07/07 11:10:54;;;;;;;3.10;0.90;;;;;;;21.02;nan;96787.06;3557795;40;20909;-73
2021/07/07 11:13:22;;;;;;;3.50;1.33;;;;;;;19.89;nan;96784.78;3551025;40;20891;-73
2021/07/07 11:15:50;;;;;;;4.70;1.30;;;;;;;20.68;nan;96785.41;3548088;40;21131;-72
2021/07/07 11:18:23;;;;;;;7.23;1.67;;;;;;;20.96;nan;96787.75;3546800;40;20881;-73
2021/07/07 11:21:07;;;;;;;5.27;1.30;;;;;;;20.97;nan;96789.41;3547262;40;20475;-72
2021/07/07 11:23:38;;;;;;;2.83;1.00;;;;;;;20.55;nan;96790.31;3550914;40;20466;-74
2021/07/07 11:28:49;;;;;;;2.87;1.23;;;;;;;21.30;nan;96784.88;3548731;40;20489;-73
2021/07/07 11:31:17;;;;;;;3.43;1.40;;;;;;;21.53;nan;96784.22;3550406;40;20800;-73
2021/07/07 11:33:58;;;;;;;6.73;1.70;;;;;;;21.09;nan;96784.56;3549522;40;20843;-75
2021/07/07 11:36:26;;;;;;;4.07;0.80;;;;;;;20.96;nan;96789.59;3558189;40;20547;-73
2021/07/07 11:39:04;;;;;;;3.50;0.90;;;;;;;20.53;nan;96782.50;3549325;40;20772;-73
2021/07/07 11:41:32;;;;;;;3.43;1.30;;;;;;;20.89;nan;96786.72;3550939;40;20569;-72
2021/07/07 11:44:00;;;;;;;2.93;0.90;;;;;;;20.70;nan;96783.41;3549591;40;21108;-73
2021/07/07 11:46:31;;;;;;;3.60;1.43;;;;;;;20.11;nan;96783.41;3550162;40;20859;-74
2021/07/07 11:49:09;;;;;;;4.10;1.10;;;;;;;20.37;nan;96779.00;3546738;40;20681;-72
2021/07/07 11:51:38;;;;;;;2.00;1.10;;;;;;;20.71;nan;96766.44;3551506;40;20911;-73
2021/07/07 11:54:08;;;;;;;2.93;1.00;;;;;;;21.15;nan;96765.28;3549121;40;20676;-75
2021/07/07 11:56:37;;;;;;;1.77;1.00;;;;;;;20.74;nan;96767.94;3550948;40;20585;-74
2021/07/07 11:59:11;;;;;;;7.67;1.60;;;;;;;20.25;nan;96781.13;3548481;40;20932;-73
2021/07/07 12:01:39;;;;;;;2.90;1.03;;;;;;;20.45;nan;96768.38;3552051;40;21016;-73
2021/07/07 12:04:12;;;;;;;2.77;1.40;;;;;;;20.29;nan;96775.31;3550814;40;20445;-72